Time;durP1;ratioP1;P1;durP2;ratioP2;P2;SDS_P1;SDS_P2;PMS_P1;PMS_P2;Temp;Humidity;BMP_temperature;BMP_pressure;BME280_temperature;BME280_humidity;BME280_pressure;Samples;Min_cycle;Max_cycle;Signal;HPM_P1;HPM_P2
2022/06/05 00:01:48;;;;;;;11.47;7.27;;;13.50;1.00;;;;;;5120576;27;20200;-72
2022/06/05 00:04:26;;;;;;;9.53;6.40;;;13.40;10.60;;;;;;5113192;28;20204;-72
2022/06/05 00:07:00;;;;;;;9.47;7.30;;;13.30;26.20;;;;;;5111299;28;20217;-72
2022/06/05 00:09:35;;;;;;;11.07;7.03;;;13.10;70.30;;;;;;5114099;28;20197;-73
2022/06/05 00:12:06;;;;;;;9.27;6.67;;;13.10;76.80;;;;;;5112940;28;20200;-72
2022/06/05 00:14:37;;;;;;;10.63;7.03;;;13.10;68.70;;;;;;5112847;28;20204;-72
2022/06/05 00:17:05;;;;;;;9.90;7.17;;;13.20;80.60;;;;;;5106852;28;20788;-72
2022/06/05 00:19:31;;;;;;;8.47;6.43;;;13.10;60.90;;;;;;5113004;28;20543;-72
2022/06/05 00:22:00;;;;;;;8.43;6.67;;;12.80;92.80;;;;;;5109150;28;20212;-72
2022/06/05 00:24:26;;;;;;;9.10;6.90;;;12.60;99.90;;;;;;5113745;28;20189;-72
2022/06/05 00:27:01;;;;;;;12.27;8.53;;;12.50;99.90;;;;;;5113640;28;20647;-72
2022/06/05 00:29:43;;;;;;;10.63;8.23;;;12.50;99.90;;;;;;5113136;28;20200;-72
2022/06/05 00:32:16;;;;;;;11.13;7.90;;;12.60;99.90;;;;;;5103227;28;20538;-73
2022/06/05 00:34:43;;;;;;;14.20;8.07;;;12.90;99.90;;;;;;5103440;27;20229;-72
2022/06/05 00:37:21;;;;;;;13.40;8.47;;;12.50;99.90;;;;;;5112484;28;20221;-72
2022/06/05 00:39:56;;;;;;;11.27;8.07;;;12.20;99.90;;;;;;5112258;28;20204;-72
2022/06/05 00:42:27;;;;;;;12.87;9.17;;;12.10;99.90;;;;;;5112886;28;20215;-73
2022/06/05 00:44:56;;;;;;;11.90;8.40;;;12.40;99.90;;;;;;5094356;28;20229;-73
2022/06/05 00:47:26;;;;;;;10.87;8.23;;;12.40;99.90;;;;;;5113059;28;20196;-73
2022/06/05 00:49:57;;;;;;;12.83;8.83;;;12.70;99.90;;;;;;5104985;27;20575;-73
2022/06/05 00:52:29;;;;;;;10.27;7.73;;;12.90;99.90;;;;;;5112813;28;20193;-73
2022/06/05 00:54:56;;;;;;;11.17;8.33;;;13.00;99.90;;;;;;5112434;28;20569;-73
2022/06/05 00:57:27;;;;;;;12.63;8.80;;;13.20;99.90;;;;;;5105941;28;20577;-73
2022/06/05 00:59:54;;;;;;;14.03;8.60;;;13.20;99.90;;;;;;5111957;28;20193;-73
2022/06/05 01:02:21;;;;;;;12.53;8.57;;;13.10;99.90;;;;;;5106471;28;20205;-73
2022/06/05 01:04:50;;;;;;;13.30;9.10;;;13.00;99.90;;;;;;5104997;28;20198;-73
2022/06/05 01:07:17;;;;;;;14.43;9.10;;;12.70;99.90;;;;;;5099290;28;20192;-73
2022/06/05 01:09:48;;;;;;;11.70;8.80;;;12.40;99.90;;;;;;5107632;28;20201;-72
2022/06/05 01:12:23;;;;;;;11.70;8.10;;;12.10;99.90;;;;;;5112228;28;20236;-72
2022/06/05 01:14:59;;;;;;;13.57;8.80;;;12.00;99.90;;;;;;5108030;28;20209;-72
2022/06/05 01:17:35;;;;;;;14.43;9.60;;;11.80;99.90;;;;;;5098765;28;20200;-70
2022/06/05 01:20:12;;;;;;;14.53;9.47;;;11.90;99.90;;;;;;5112645;28;20207;-70
2022/06/05 01:23:02;;;;;;;14.80;9.17;;;12.10;99.90;;;;;;5108593;28;20246;-71
2022/06/05 01:25:52;;;;;;;13.27;9.47;;;12.40;99.90;;;;;;5112547;28;20587;-71
2022/06/05 01:28:23;;;;;;;14.93;9.53;;;12.70;99.90;;;;;;5106691;28;20206;-71
2022/06/05 01:30:56;;;;;;;15.63;9.90;;;12.80;99.90;;;;;;5101212;28;20205;-71
2022/06/05 01:33:26;;;;;;;14.17;9.17;;;12.80;99.90;;;;;;5112527;28;20197;-71
2022/06/05 01:36:03;;;;;;;13.20;8.90;;;12.80;99.90;;;;;;5095662;28;20233;-71
2022/06/05 01:38:37;;;;;;;13.77;9.17;;;12.80;99.90;;;;;;5097239;28;20203;-71
2022/06/05 01:41:11;;;;;;;11.70;8.97;;;12.60;99.90;;;;;;5099305;28;20215;-71
2022/06/05 01:43:42;;;;;;;14.37;9.73;;;12.80;99.90;;;;;;5098384;28;20653;-71
2022/06/05 01:46:15;;;;;;;14.40;9.67;;;12.90;99.90;;;;;;5105457;28;20585;-71
2022/06/05 01:48:45;;;;;;;13.63;9.10;;;12.70;99.90;;;;;;5114763;28;20197;-71
2022/06/05 01:51:17;;;;;;;13.33;9.07;;;12.10;99.90;;;;;;5112212;28;20205;-71
2022/06/05 01:53:47;;;;;;;13.60;9.50;;;11.90;99.90;;;;;;5111111;28;20573;-71
2022/06/05 01:56:20;;;;;;;12.00;9.03;;;11.90;99.90;;;;;;5106904;28;20217;-71
2022/06/05 01:58:51;;;;;;;12.67;8.80;;;12.00;99.90;;;;;;5111339;28;20201;-71
2022/06/05 02:01:22;;;;;;;14.10;8.73;;;12.10;99.90;;;;;;5104060;28;20201;-71
2022/06/05 02:03:53;;;;;;;13.70;9.03;;;12.00;99.90;;;;;;5108025;28;20223;-70
2022/06/05 02:06:24;;;;;;;13.63;8.93;;;11.70;99.90;;;;;;5101609;28;20198;-70
2022/06/05 02:08:55;;;;;;;13.07;8.70;;;11.50;99.90;;;;;;5098296;28;20285;-71
2022/06/05 02:11:25;;;;;;;10.90;8.53;;;11.50;99.90;;;;;;5093746;28;20203;-71
2022/06/05 02:13:55;;;;;;;13.63;9.17;;;11.60;99.90;;;;;;5109923;28;20209;-71
2022/06/05 02:16:22;;;;;;;12.03;8.80;;;11.60;99.90;;;;;;5111081;28;20254;-70
2022/06/05 02:18:50;;;;;;;13.87;9.60;;;11.60;99.90;;;;;;5110550;28;20659;-71
2022/06/05 02:21:17;;;;;;;14.40;9.60;;;11.40;99.90;;;;;;5111059;28;20209;-70
2022/06/05 02:23:44;;;;;;;12.77;9.17;;;11.50;99.90;;;;;;5111811;28;20205;-71
2022/06/05 02:26:11;;;;;;;14.60;9.00;;;11.60;99.90;;;;;;5111419;28;20198;-71
2022/06/05 02:28:40;;;;;;;14.50;8.83;;;11.60;99.90;;;;;;5111082;28;20212;-71
2022/06/05 02:31:19;;;;;;;14.33;9.47;;;11.60;99.90;;;;;;5109856;28;20204;-70
2022/06/05 02:33:56;;;;;;;14.40;9.57;;;11.70;99.90;;;;;;5090762;28;20205;-70
2022/06/05 02:36:33;;;;;;;15.17;8.70;;;11.70;99.90;;;;;;5091548;28;20224;-71
2022/06/05 02:39:08;;;;;;;14.13;9.20;;;11.50;99.90;;;;;;5112463;28;20543;-71
2022/06/05 02:41:43;;;;;;;12.70;8.63;;;11.10;99.90;;;;;;5091184;28;20223;-71
2022/06/05 02:44:30;;;;;;;14.57;9.70;;;10.80;99.90;;;;;;5108177;28;20572;-70
2022/06/05 02:47:21;;;;;;;16.43;9.77;;;10.90;99.90;;;;;;5108891;28;20201;-70
2022/06/05 02:49:55;;;;;;;14.60;9.60;;;11.00;99.90;;;;;;5113301;27;20204;-70
2022/06/05 02:52:24;;;;;;;15.30;9.57;;;10.90;99.90;;;;;;5127419;27;20692;-70
2022/06/05 02:54:57;;;;;;;17.00;9.90;;;11.00;99.90;;;;;;5114458;28;20201;-70
2022/06/05 02:57:24;;;;;;;15.27;9.83;;;11.00;99.90;;;;;;5115446;27;20246;-71
2022/06/05 02:59:52;;;;;;;15.33;9.50;;;10.80;99.90;;;;;;5111745;28;20586;-70
2022/06/05 03:05:04;;;;;;;15.13;10.23;;;11.00;99.90;;;;;;5110236;28;20208;-71
2022/06/05 03:07:31;;;;;;;18.07;10.10;;;11.20;99.90;;;;;;5100724;28;20191;-71
2022/06/05 03:09:58;;;;;;;13.93;9.30;;;11.30;99.90;;;;;;5115221;28;20197;-71
2022/06/05 03:12:25;;;;;;;11.93;9.53;;;11.30;99.90;;;;;;5115370;27;20193;-71
2022/06/05 03:14:56;;;;;;;13.37;10.07;;;11.40;99.90;;;;;;5101122;27;20217;-71
2022/06/05 03:17:23;;;;;;;21.73;14.10;;;11.70;99.90;;;;;;5115260;28;20281;-71
2022/06/05 03:19:50;;;;;;;18.00;11.10;;;11.60;99.90;;;;;;5108414;28;20655;-71
2022/06/05 03:22:18;;;;;;;23.83;16.43;;;11.80;99.90;;;;;;5114375;28;20695;-71
2022/06/05 03:24:45;;;;;;;13.87;9.90;;;11.50;99.90;;;;;;5099411;28;20560;-71
2022/06/05 03:27:11;;;;;;;15.63;10.30;;;11.40;99.90;;;;;;5113933;28;20193;-71
2022/06/05 03:29:38;;;;;;;18.37;10.30;;;11.70;99.90;;;;;;5115014;28;20574;-71
2022/06/05 03:32:07;;;;;;;15.23;9.73;;;11.80;99.90;;;;;;5105008;28;20224;-70
2022/06/05 03:34:34;;;;;;;17.40;10.10;;;12.00;99.90;;;;;;5096654;27;20285;-70
2022/06/05 03:37:01;;;;;;;14.67;9.77;;;12.10;99.90;;;;;;5126281;27;20223;-70
2022/06/05 03:39:28;;;;;;;14.13;8.90;;;12.20;99.90;;;;;;5127452;27;20193;-70
2022/06/05 03:41:55;;;;;;;15.17;9.53;;;11.90;99.90;;;;;;5113904;28;20241;-71
2022/06/05 03:44:22;;;;;;;14.60;9.70;;;11.60;99.90;;;;;;5113254;28;20208;-71
2022/06/05 03:46:48;;;;;;;15.10;10.17;;;11.60;99.90;;;;;;5114327;28;20696;-71
2022/06/05 03:49:16;;;;;;;14.77;9.60;;;11.80;99.90;;;;;;5111734;28;20193;-71
2022/06/05 03:51:46;;;;;;;27.10;9.80;;;12.10;99.90;;;;;;5096805;28;20205;-71
2022/06/05 03:54:13;;;;;;;12.87;9.30;;;12.30;99.90;;;;;;5113798;28;20646;-71
2022/06/05 03:56:40;;;;;;;14.97;9.67;;;12.40;99.90;;;;;;5114528;28;20213;-71
2022/06/05 03:59:07;;;;;;;14.43;9.10;;;12.50;99.90;;;;;;5112313;28;20201;-71
2022/06/05 04:01:34;;;;;;;17.07;9.77;;;12.60;99.90;;;;;;5093974;28;20216;-71
2022/06/05 04:04:01;;;;;;;14.40;8.87;;;12.70;99.90;;;;;;5112897;27;20200;-71
2022/06/05 04:06:31;;;;;;;11.10;8.30;;;12.90;99.90;;;;;;5113902;28;20195;-71
2022/06/05 04:09:00;;;;;;;8.93;7.53;;;14.10;99.90;;;;;;5112755;28;20224;-71
2022/06/05 04:11:29;;;;;;;13.43;8.23;;;14.00;99.90;;;;;;5110344;28;20197;-71
2022/06/05 04:13:56;;;;;;;11.70;8.80;;;14.00;99.90;;;;;;5110496;28;20207;-71
2022/06/05 04:16:26;;;;;;;10.47;8.10;;;14.40;99.90;;;;;;5109537;28;20226;-71
2022/06/05 04:18:53;;;;;;;11.77;8.37;;;14.70;58.50;;;;;;5100148;28;20602;-71
2022/06/05 04:21:22;;;;;;;11.17;8.17;;;15.20;7.80;;;;;;5106393;28;20201;-71
2022/06/05 04:23:51;;;;;;;10.20;7.27;;;15.50;1.00;;;;;;5113462;28;20201;-71
2022/06/05 04:26:20;;;;;;;10.73;8.10;;;15.20;1.00;;;;;;5112203;28;20635;-71
2022/06/05 04:28:47;;;;;;;11.87;7.70;;;14.80;99.90;;;;;;5104912;28;20559;-71
2022/06/05 04:31:21;;;;;;;12.07;8.00;;;14.60;99.90;;;;;;5113000;28;20196;-71
2022/06/05 04:33:48;;;;;;;9.17;7.20;;;14.30;99.90;;;;;;5112923;27;20205;-71
2022/06/05 04:36:14;;;;;;;10.87;7.93;;;14.20;99.90;;;;;;5113221;28;20201;-71
2022/06/05 04:38:41;;;;;;;10.43;8.00;;;14.10;99.90;;;;;;5112500;28;20476;-71
2022/06/05 04:41:10;;;;;;;10.70;8.27;;;14.10;99.90;;;;;;5112198;28;20193;-72
2022/06/05 04:43:37;;;;;;;10.70;8.33;;;14.20;99.90;;;;;;5112097;28;20189;-72
2022/06/05 04:46:05;;;;;;;11.13;8.47;;;14.20;99.90;;;;;;5099615;28;20213;-72
2022/06/05 04:48:32;;;;;;;10.70;7.70;;;14.20;99.90;;;;;;5111587;28;20201;-73
2022/06/05 04:50:59;;;;;;;11.07;8.30;;;14.30;99.90;;;;;;5105793;28;20647;-72
2022/06/05 04:53:26;;;;;;;9.80;7.53;;;14.50;99.90;;;;;;5112124;28;20564;-73
2022/06/05 04:55:53;;;;;;;9.87;7.30;;;14.50;99.90;;;;;;5113088;28;20204;-72
2022/06/05 04:58:21;;;;;;;12.10;8.47;;;14.70;99.90;;;;;;5113068;28;20691;-72
2022/06/05 05:00:48;;;;;;;10.60;8.00;;;14.80;99.90;;;;;;5104771;28;20535;-72
2022/06/05 05:03:15;;;;;;;10.37;7.97;;;14.80;99.90;;;;;;5112642;28;20204;-72
2022/06/05 05:05:42;;;;;;;11.03;7.60;;;14.90;99.90;;;;;;5107508;28;20292;-72
2022/06/05 05:08:09;;;;;;;9.27;7.53;;;15.10;99.90;;;;;;5103685;28;20189;-73
2022/06/05 05:10:36;;;;;;;11.47;8.60;;;15.60;99.90;;;;;;5111677;28;20201;-72
2022/06/05 05:13:03;;;;;;;11.47;8.23;;;15.50;99.90;;;;;;5112674;28;20207;-73
2022/06/05 05:15:31;;;;;;;8.83;7.03;;;15.50;99.90;;;;;;5101663;28;20201;-73
2022/06/05 05:17:58;;;;;;;9.30;7.63;;;15.70;99.90;;;;;;5116462;27;20221;-72
2022/06/05 05:20:25;;;;;;;11.60;7.73;;;15.60;99.90;;;;;;5111544;27;20209;-72
2022/06/05 05:22:52;;;;;;;12.27;8.07;;;15.90;99.90;;;;;;5111927;28;20193;-73
2022/06/05 05:25:20;;;;;;;10.40;7.90;;;15.90;98.90;;;;;;5112615;28;20203;-72
2022/06/05 05:27:47;;;;;;;12.73;8.37;;;16.10;99.90;;;;;;5099008;28;20246;-72
2022/06/05 05:30:14;;;;;;;12.20;7.90;;;17.10;1.00;;;;;;5105139;28;20572;-72
2022/06/05 05:32:42;;;;;;;10.23;7.30;;;16.90;1.00;;;;;;5111901;28;20193;-72
2022/06/05 05:35:09;;;;;;;11.47;7.40;;;16.60;14.10;;;;;;5102757;28;20208;-72
2022/06/05 05:37:36;;;;;;;10.53;7.57;;;16.60;1.00;;;;;;5094689;28;20727;-72
2022/06/05 05:42:48;;;;;;;11.23;7.33;;;17.50;1.00;;;;;;5111033;28;20246;-73
2022/06/05 05:45:16;;;;;;;8.70;7.65;;;17.60;1.00;;;;;;5101055;28;20218;-73
2022/06/05 05:47:44;;;;;;;10.48;6.57;;;18.70;99.90;;;;;;5111743;28;20196;-73
2022/06/05 05:50:15;;;;;;;10.50;7.10;;;18.40;99.90;;;;;;5101833;28;20202;-73
2022/06/05 05:52:43;;;;;;;7.53;6.45;;;18.30;99.90;;;;;;5092397;28;20255;-72
2022/06/05 05:55:13;;;;;;;7.85;6.53;;;18.40;99.90;;;;;;5108530;28;20201;-73
2022/06/05 05:57:40;;;;;;;7.65;6.47;;;18.30;99.90;;;;;;5112307;28;20278;-73
2022/06/05 06:00:10;;;;;;;11.80;8.00;;;17.90;99.90;;;;;;5106916;28;20201;-73
2022/06/05 06:02:37;;;;;;;7.72;6.82;;;17.80;99.90;;;;;;5112117;28;20193;-73
2022/06/05 06:05:09;;;;;;;8.43;7.25;;;17.70;99.90;;;;;;5110829;28;20655;-73
2022/06/05 06:07:36;;;;;;;9.65;7.10;;;17.70;1.00;;;;;;5107497;28;20204;-72
2022/06/05 06:10:04;;;;;;;8.85;6.78;;;17.80;1.00;;;;;;5095888;28;20206;-72
2022/06/05 06:12:30;;;;;;;8.80;7.22;;;17.80;1.00;;;;;;5102404;28;20660;-73
2022/06/05 06:14:57;;;;;;;9.88;6.93;;;17.90;1.00;;;;;;5104323;28;20446;-72
2022/06/05 06:17:24;;;;;;;8.57;7.30;;;18.10;1.00;;;;;;5118794;28;20231;-72
2022/06/05 06:19:51;;;;;;;8.95;7.35;;;18.10;99.90;;;;;;5111227;27;20203;-73
2022/06/05 06:22:20;;;;;;;9.25;7.68;;;18.30;99.90;;;;;;5112405;28;20208;-73
2022/06/05 06:24:47;;;;;;;11.25;7.65;;;18.00;1.00;;;;;;5115516;28;20200;-73
2022/06/05 06:27:13;;;;;;;11.10;7.57;;;18.20;1.00;;;;;;5115129;28;20563;-73
2022/06/05 06:29:40;;;;;;;8.70;7.30;;;18.10;1.00;;;;;;5114513;28;20208;-73
2022/06/05 06:32:08;;;;;;;10.60;7.68;;;18.20;1.00;;;;;;5105372;28;20209;-73
2022/06/05 06:34:35;;;;;;;8.40;7.53;;;18.20;99.90;;;;;;5095883;28;20540;-73
2022/06/05 06:37:03;;;;;;;8.88;7.97;;;18.20;1.00;;;;;;5110093;28;20217;-73
2022/06/05 06:39:31;;;;;;;9.45;7.07;;;18.40;1.00;;;;;;5115006;28;20230;-73
2022/06/05 06:41:57;;;;;;;8.25;7.45;;;18.40;1.00;;;;;;5110131;28;20751;-73
2022/06/05 06:44:25;;;;;;;9.25;8.05;;;18.30;99.90;;;;;;5100678;28;20209;-72
2022/06/05 06:46:52;;;;;;;8.95;7.85;;;18.40;99.90;;;;;;5111471;28;20204;-73
2022/06/05 06:49:19;;;;;;;9.18;7.85;;;18.40;99.90;;;;;;5101594;28;20681;-73
2022/06/05 06:51:46;;;;;;;12.45;8.32;;;18.60;1.00;;;;;;5111182;27;20223;-73
2022/06/05 06:54:13;;;;;;;9.00;7.43;;;18.70;1.00;;;;;;5102516;28;20623;-73
2022/06/05 06:56:42;;;;;;;9.57;7.60;;;18.70;1.00;;;;;;5102978;27;20197;-73
2022/06/05 06:59:09;;;;;;;9.43;7.80;;;18.70;1.00;;;;;;5101833;28;20684;-73
2022/06/05 07:01:36;;;;;;;11.30;8.50;;;18.70;1.00;;;;;;5099436;28;20201;-72
2022/06/05 07:04:03;;;;;;;8.70;7.45;;;18.90;1.00;;;;;;5098947;28;20208;-73
2022/06/05 07:06:30;;;;;;;9.57;7.97;;;18.90;1.00;;;;;;5099011;27;20655;-73
2022/06/05 07:08:56;;;;;;;11.68;7.15;;;18.90;1.00;;;;;;5102701;27;20197;-73
2022/06/05 07:11:23;;;;;;;10.93;7.28;;;19.00;1.00;;;;;;5103733;28;20204;-72
2022/06/05 07:13:52;;;;;;;8.93;7.30;;;18.90;1.00;;;;;;5108211;28;20227;-73
2022/06/05 07:16:20;;;;;;;9.88;7.20;;;19.00;1.00;;;;;;5105666;27;20208;-72
2022/06/05 07:18:47;;;;;;;8.55;7.18;;;19.10;1.00;;;;;;5106672;28;20232;-73
2022/06/05 07:21:16;;;;;;;9.80;7.65;;;19.20;1.00;;;;;;5103967;27;20670;-72
2022/06/05 07:23:43;;;;;;;9.05;6.80;;;19.30;1.00;;;;;;5105391;28;20201;-72
2022/06/05 07:26:12;;;;;;;7.45;6.75;;;19.50;1.00;;;;;;5105124;28;20661;-73
2022/06/05 07:28:39;;;;;;;9.35;7.10;;;19.50;1.00;;;;;;5109936;28;20470;-72
2022/06/05 07:31:09;;;;;;;7.53;6.80;;;19.50;99.90;;;;;;5103097;28;20215;-72
2022/06/05 07:33:37;;;;;;;7.68;6.78;;;19.50;1.00;;;;;;5105116;28;20205;-73
2022/06/05 07:36:06;;;;;;;7.90;7.10;;;19.60;99.90;;;;;;5103137;28;20205;-73
2022/06/05 07:38:34;;;;;;;9.57;7.57;;;19.80;1.00;;;;;;5102630;28;20674;-72
2022/06/05 07:41:01;;;;;;;8.65;7.45;;;19.80;99.90;;;;;;5101718;28;20711;-72
2022/06/05 07:43:28;;;;;;;8.32;7.05;;;19.90;99.90;;;;;;5101547;27;20206;-72
2022/06/05 07:45:56;;;;;;;9.35;7.15;;;20.00;99.90;;;;;;5102835;28;20201;-72
2022/06/05 07:48:25;;;;;;;7.88;7.07;;;20.30;1.00;;;;;;5106183;27;20194;-72
2022/06/05 07:56:30;;;;;;;8.68;7.13;;;20.40;26.60;;;;;;5124763;27;20207;-73
2022/06/05 07:58:57;;;;;;;10.45;8.52;;;20.50;1.00;;;;;;5113379;28;20286;-73
2022/06/05 08:01:24;;;;;;;9.90;8.25;;;20.50;1.00;;;;;;5109844;28;20569;-73
2022/06/05 08:03:52;;;;;;;8.60;7.60;;;20.50;99.90;;;;;;5113793;28;20668;-73
2022/06/05 08:06:19;;;;;;;8.27;7.32;;;20.60;1.00;;;;;;5111774;28;20197;-73
2022/06/05 08:08:46;;;;;;;9.00;8.02;;;20.60;99.90;;;;;;5113188;28;20556;-73
2022/06/05 08:11:14;;;;;;;11.57;8.45;;;20.70;1.00;;;;;;5112596;28;20651;-73
2022/06/05 08:13:41;;;;;;;10.32;8.20;;;20.80;1.00;;;;;;5114165;28;20670;-73
2022/06/05 08:16:08;;;;;;;9.27;8.20;;;20.90;99.90;;;;;;5106177;28;20198;-73
2022/06/05 08:18:35;;;;;;;12.55;8.05;;;21.00;99.90;;;;;;5113900;28;20684;-73
2022/06/05 08:21:04;;;;;;;10.68;8.18;;;21.00;99.90;;;;;;5111182;28;20205;-73
2022/06/05 08:23:31;;;;;;;14.57;8.23;;;21.10;1.00;;;;;;5114218;27;20197;-73
2022/06/05 08:25:58;;;;;;;11.65;8.50;;;21.10;1.00;;;;;;5125646;27;20201;-73
2022/06/05 08:28:25;;;;;;;8.65;7.70;;;21.00;1.00;;;;;;5110505;28;20196;-73
2022/06/05 08:30:52;;;;;;;9.70;7.55;;;21.10;99.90;;;;;;5114214;28;20200;-73
2022/06/05 08:33:19;;;;;;;8.85;7.95;;;21.00;1.00;;;;;;5114514;28;20196;-73
2022/06/05 08:35:46;;;;;;;8.55;7.70;;;21.10;1.00;;;;;;5109083;28;20544;-73
2022/06/05 08:43:58;;;;;;;11.73;8.43;;;21.40;1.00;;;;;;5092607;28;20213;-73
2022/06/05 08:46:28;;;;;;;11.43;8.02;;;21.50;1.00;;;;;;5093108;28;20206;-73
2022/06/05 08:48:59;;;;;;;13.45;8.60;;;21.60;1.00;;;;;;5105626;28;20207;-72
2022/06/05 08:51:41;;;;;;;9.40;7.03;;;21.60;1.00;;;;;;5112770;28;20196;-73
2022/06/05 08:54:14;;;;;;;9.23;7.85;;;21.40;99.90;;;;;;5111943;28;20633;-73
2022/06/05 08:56:45;;;;;;;10.18;7.10;;;21.50;1.00;;;;;;5121501;27;20193;-73
2022/06/05 08:59:18;;;;;;;9.38;7.75;;;21.70;1.00;;;;;;5121168;27;20216;-73
2022/06/05 09:01:52;;;;;;;8.85;7.50;;;21.80;1.00;;;;;;5108199;28;20560;-73
2022/06/05 09:04:37;;;;;;;8.00;7.20;;;22.00;99.90;;;;;;5105342;28;20201;-73
2022/06/05 09:07:10;;;;;;;10.57;7.80;;;22.00;1.00;;;;;;5112995;28;20295;-73
2022/06/05 09:09:43;;;;;;;8.32;7.45;;;22.30;1.00;;;;;;5101062;27;20190;-73
2022/06/05 09:12:18;;;;;;;9.40;7.43;;;22.20;1.00;;;;;;5110267;27;20554;-73
2022/06/05 09:14:50;;;;;;;10.80;7.53;;;22.10;99.90;;;;;;5112015;28;20776;-73
2022/06/05 09:17:20;;;;;;;9.45;7.28;;;22.10;1.00;;;;;;5105546;28;20552;-73
2022/06/05 09:19:48;;;;;;;7.90;7.10;;;22.10;99.90;;;;;;5112272;28;20223;-73
2022/06/05 09:22:18;;;;;;;8.45;7.22;;;22.00;1.00;;;;;;5111941;28;20232;-73
2022/06/05 09:25:12;;;;;;;9.02;7.22;;;22.20;99.90;;;;;;5112722;28;20197;-73
2022/06/05 09:27:50;;;;;;;7.40;6.50;;;22.30;1.00;;;;;;5098982;28;20390;-73
2022/06/05 09:30:22;;;;;;;7.40;6.70;;;22.30;1.00;;;;;;5092033;28;20202;-73
2022/06/05 09:33:03;;;;;;;10.43;7.30;;;22.40;1.00;;;;;;5094343;28;20288;-73
2022/06/05 09:35:35;;;;;;;8.38;7.30;;;22.30;1.00;;;;;;5092145;28;20205;-73
2022/06/05 09:38:07;;;;;;;9.02;7.70;;;22.30;99.90;;;;;;5104278;28;20217;-73
2022/06/05 09:40:38;;;;;;;9.88;7.75;;;22.10;99.90;;;;;;5099518;28;20209;-73
2022/06/05 09:43:29;;;;;;;11.77;8.20;;;22.20;1.00;;;;;;5105067;28;20567;-73
2022/06/05 09:46:08;;;;;;;7.90;7.07;;;22.50;1.00;;;;;;5117384;27;20205;-73
2022/06/05 09:48:45;;;;;;;8.55;7.20;;;22.90;99.90;;;;;;5110363;27;20198;-73
2022/06/05 09:51:15;;;;;;;8.48;7.68;;;23.20;1.00;;;;;;5112515;28;20192;-73
2022/06/05 09:53:46;;;;;;;8.48;7.57;;;23.30;53.60;;;;;;5111177;28;20199;-73
2022/06/05 09:56:25;;;;;;;10.68;7.70;;;23.60;1.00;;;;;;5095308;28;20201;-73
2022/06/05 09:59:11;;;;;;;8.52;7.63;;;23.40;1.00;;;;;;5113314;28;20710;-73
2022/06/05 10:01:49;;;;;;;9.02;7.57;;;23.70;1.00;;;;;;5116570;28;20200;-73
2022/06/05 10:04:16;;;;;;;8.00;7.20;;;23.90;1.00;;;;;;5095779;28;20205;-73
2022/06/05 10:06:48;;;;;;;10.73;8.45;;;24.50;1.00;;;;;;5103898;28;20197;-74
2022/06/05 10:09:20;;;;;;;9.57;7.97;;;24.30;1.00;;;;;;5104395;28;20201;-73
2022/06/05 10:11:53;;;;;;;7.70;6.97;;;24.10;99.90;;;;;;5103563;28;20542;-73
2022/06/05 10:14:31;;;;;;;8.90;7.28;;;24.50;1.00;;;;;;5107011;28;20205;-73
2022/06/05 10:17:11;;;;;;;8.52;7.63;;;24.50;99.90;;;;;;5105134;28;21057;-74
2022/06/05 10:19:58;;;;;;;9.75;8.30;;;24.70;99.90;;;;;;5107568;27;20224;-74
2022/06/05 10:22:32;;;;;;;8.55;7.60;;;24.70;99.90;;;;;;5100927;27;20212;-73
2022/06/05 10:25:08;;;;;;;10.82;8.02;;;24.70;1.00;;;;;;5108892;28;20713;-74
2022/06/05 10:27:37;;;;;;;8.25;7.50;;;25.20;1.00;;;;;;5100674;28;20276;-74
2022/06/05 10:30:06;;;;;;;9.35;7.68;;;25.20;1.00;;;;;;5107005;28;20207;-74
2022/06/05 10:32:46;;;;;;;9.40;7.93;;;25.30;1.00;;;;;;5105007;28;20247;-74
2022/06/05 10:35:19;;;;;;;8.98;7.55;;;25.10;1.00;;;;;;5107762;27;20219;-74
2022/06/05 10:37:51;;;;;;;12.80;7.68;;;24.90;1.00;;;;;;5105020;27;20204;-74
2022/06/05 10:40:29;;;;;;;8.48;7.68;;;24.60;1.00;;;;;;5107153;27;20208;-74
2022/06/05 10:43:02;;;;;;;9.70;7.40;;;24.40;1.00;;;;;;5104977;28;20208;-74
2022/06/05 10:45:41;;;;;;;8.43;7.00;;;24.10;1.00;;;;;;5098729;28;20727;-73
2022/06/05 10:48:27;;;;;;;12.13;8.02;;;24.20;1.00;;;;;;5106908;28;20283;-74
2022/06/05 10:50:59;;;;;;;9.05;7.07;;;24.30;1.00;;;;;;5106513;28;20223;-73
2022/06/05 10:53:33;;;;;;;8.40;6.85;;;24.00;1.00;;;;;;5104009;28;20206;-74
2022/06/05 10:56:15;;;;;;;7.75;6.70;;;24.10;1.00;;;;;;5105184;28;20208;-73
2022/06/05 10:58:51;;;;;;;9.05;7.15;;;24.10;1.00;;;;;;5104773;27;20746;-73
2022/06/05 11:01:35;;;;;;;8.15;7.35;;;23.70;1.00;;;;;;5107275;28;20211;-73
2022/06/05 11:04:10;;;;;;;8.27;7.45;;;24.10;1.00;;;;;;5105092;28;20205;-74
2022/06/05 11:06:45;;;;;;;10.00;7.45;;;23.80;1.00;;;;;;5108589;27;20558;-74
2022/06/05 11:09:25;;;;;;;9.15;7.30;;;23.90;1.00;;;;;;5101221;28;20188;-74
2022/06/05 11:14:54;;;;;;;10.60;7.63;;;23.80;1.00;;;;;;5100247;27;20575;-73
2022/06/05 11:17:31;;;;;;;7.90;7.10;;;23.70;1.00;;;;;;5104797;28;20201;-74
2022/06/05 11:20:10;;;;;;;8.15;7.05;;;23.90;1.00;;;;;;5108371;28;20228;-73
2022/06/05 11:22:40;;;;;;;7.90;7.15;;;23.90;1.00;;;;;;5102100;27;20194;-73
2022/06/05 11:25:19;;;;;;;8.07;6.90;;;23.90;1.00;;;;;;5105339;28;20584;-74
2022/06/05 11:27:59;;;;;;;8.27;7.40;;;24.00;1.00;;;;;;5104429;28;20746;-73
2022/06/05 11:30:37;;;;;;;7.47;6.72;;;24.30;12.50;;;;;;5106399;27;20272;-74
2022/06/05 11:33:13;;;;;;;8.60;6.70;;;24.30;29.60;;;;;;5103012;28;20200;-73
2022/06/05 11:35:55;;;;;;;8.65;6.85;;;24.60;88.30;;;;;;5099491;28;20197;-73
2022/06/05 11:38:31;;;;;;;8.15;7.07;;;24.60;50.40;;;;;;5103672;28;20198;-73
2022/06/05 11:41:04;;;;;;;6.78;6.18;;;24.70;99.90;;;;;;5105242;28;20207;-74
2022/06/05 11:43:34;;;;;;;8.77;7.10;;;24.60;99.90;;;;;;5105554;28;20677;-73
2022/06/05 11:46:16;;;;;;;7.70;7.00;;;24.60;99.90;;;;;;5100001;28;20378;-74
2022/06/05 11:48:47;;;;;;;7.43;6.72;;;24.60;99.90;;;;;;5109863;27;20204;-74
2022/06/05 11:51:21;;;;;;;7.63;6.85;;;25.10;99.90;;;;;;5104274;28;20201;-74
2022/06/05 11:54:00;;;;;;;8.43;6.72;;;25.30;1.00;;;;;;5102244;27;20215;-74
2022/06/05 11:56:42;;;;;;;7.53;6.18;;;24.90;1.00;;;;;;5106859;27;20201;-74
2022/06/05 11:59:21;;;;;;;8.93;6.38;;;25.10;1.00;;;;;;5119180;27;20213;-74
2022/06/05 12:01:57;;;;;;;7.18;6.47;;;25.10;1.00;;;;;;5110539;27;20204;-73
2022/06/05 12:04:36;;;;;;;7.90;6.32;;;25.00;1.00;;;;;;5100051;28;20201;-74
2022/06/05 12:07:06;;;;;;;9.68;6.63;;;24.80;1.00;;;;;;5118466;27;20209;-74
2022/06/05 12:09:36;;;;;;;7.18;6.47;;;24.80;1.00;;;;;;5099099;28;20198;-74
2022/06/05 12:12:08;;;;;;;6.28;5.78;;;24.80;1.00;;;;;;5098551;28;20213;-74
2022/06/05 12:14:43;;;;;;;9.60;6.18;;;25.00;1.00;;;;;;5102707;28;20205;-74
2022/06/05 12:17:17;;;;;;;6.82;6.22;;;24.80;1.00;;;;;;5099624;28;20197;-74
2022/06/05 12:20:00;;;;;;;7.07;6.38;;;25.00;1.00;;;;;;5108712;27;20220;-74
2022/06/05 12:22:33;;;;;;;7.70;6.28;;;25.10;1.00;;;;;;5105339;28;20229;-74
2022/06/05 12:25:06;;;;;;;7.20;5.90;;;25.00;1.00;;;;;;5106881;27;20295;-74
2022/06/05 12:27:54;;;;;;;6.47;5.88;;;25.00;1.00;;;;;;5110348;28;20679;-74
2022/06/05 12:30:24;;;;;;;6.28;5.53;;;24.90;1.00;;;;;;5097073;28;20209;-74
2022/06/05 12:32:59;;;;;;;7.13;6.18;;;25.20;1.00;;;;;;5105705;28;20241;-73
2022/06/05 12:35:28;;;;;;;6.75;6.05;;;25.40;35.30;;;;;;5102800;27;20204;-74
2022/06/05 12:38:06;;;;;;;9.57;6.25;;;25.60;99.90;;;;;;5101944;28;20693;-74
2022/06/05 12:40:36;;;;;;;6.60;6.00;;;25.60;99.90;;;;;;5097934;28;20223;-74
2022/06/05 12:43:08;;;;;;;7.53;6.55;;;25.60;52.20;;;;;;5107760;28;20454;-74
2022/06/05 12:45:39;;;;;;;6.82;5.60;;;25.50;99.90;;;;;;5100497;27;20564;-74
2022/06/05 12:48:16;;;;;;;6.88;5.93;;;25.50;99.90;;;;;;5104069;28;20193;-74
2022/06/05 12:50:59;;;;;;;7.25;6.00;;;25.50;1.00;;;;;;5098531;28;20200;-74
2022/06/05 12:53:36;;;;;;;6.35;5.85;;;25.60;1.00;;;;;;5106654;27;20204;-74
2022/06/05 12:56:14;;;;;;;6.80;6.00;;;25.50;1.00;;;;;;5101301;28;20204;-74
2022/06/05 12:58:51;;;;;;;9.60;6.10;;;25.50;1.00;;;;;;5104346;28;20200;-74
2022/06/05 13:01:22;;;;;;;6.70;5.60;;;25.50;1.00;;;;;;5106532;28;20572;-74
2022/06/05 13:03:59;;;;;;;7.38;5.95;;;25.60;86.40;;;;;;5102288;28;20217;-74
2022/06/05 13:06:38;;;;;;;6.28;5.65;;;25.60;99.90;;;;;;5103424;27;20197;-74
2022/06/05 13:09:14;;;;;;;7.13;5.43;;;25.70;99.90;;;;;;5103579;28;20203;-74
2022/06/05 13:11:46;;;;;;;5.90;5.30;;;25.30;99.90;;;;;;5100088;28;20196;-73
2022/06/05 13:14:25;;;;;;;5.78;5.20;;;25.50;99.90;;;;;;5105365;28;20205;-74
2022/06/05 13:17:08;;;;;;;6.88;5.78;;;25.70;1.00;;;;;;5102948;28;20297;-73
2022/06/05 13:19:42;;;;;;;6.35;5.45;;;25.50;1.00;;;;;;5107840;27;20214;-74
2022/06/05 13:22:13;;;;;;;6.18;5.68;;;25.30;1.00;;;;;;5101596;28;20200;-74
2022/06/05 13:24:50;;;;;;;6.22;5.63;;;25.30;1.00;;;;;;5109504;27;20208;-74
2022/06/05 13:27:23;;;;;;;5.90;5.40;;;25.20;1.00;;;;;;5101015;28;20212;-73